createdAt,value
2023-02-27T00:00:58.634Z,-1.00
2023-02-27T00:03:27.080Z,-1.00
2023-02-27T00:05:56.257Z,-1.00
2023-02-27T00:08:24.595Z,-1.00
2023-02-27T00:10:52.803Z,-1.00
2023-02-27T00:13:21.171Z,-1.10
2023-02-27T00:15:50.321Z,-1.10
2023-02-27T00:18:19.831Z,-1.20
2023-02-27T00:20:48.450Z,-1.20
2023-02-27T00:23:16.862Z,-1.20
2023-02-27T00:25:45.437Z,-1.20
2023-02-27T00:28:13.505Z,-1.20
2023-02-27T00:30:41.802Z,-1.20
2023-02-27T00:33:10.057Z,-1.10
2023-02-27T00:35:39.528Z,-1.10
2023-02-27T00:38:07.589Z,-1.10
2023-02-27T00:40:36.404Z,-1.10
2023-02-27T00:43:04.608Z,-1.10
2023-02-27T00:45:32.776Z,-1.10
2023-02-27T00:48:00.975Z,-1.00
2023-02-27T00:50:29.025Z,-1.00
2023-02-27T00:53:00.890Z,-1.10
2023-02-27T00:55:28.956Z,-1.10
2023-02-27T00:57:57.100Z,-1.10
2023-02-27T01:00:25.509Z,-1.10
2023-02-27T01:02:53.681Z,-1.10
2023-02-27T01:05:21.805Z,-1.10
2023-02-27T01:07:50.034Z,-1.10
2023-02-27T01:10:19.635Z,-1.10
2023-02-27T01:12:47.751Z,-0.90
2023-02-27T01:15:15.869Z,-1.00
2023-02-27T01:17:44.172Z,-0.90
2023-02-27T01:20:14.022Z,-1.00
2023-02-27T01:22:42.345Z,-1.10
2023-02-27T01:25:11.061Z,-1.00
2023-02-27T01:27:40.788Z,-1.00
2023-02-27T01:30:11.460Z,-1.10
2023-02-27T01:32:39.835Z,-1.00
2023-02-27T01:35:08.629Z,-1.00
2023-02-27T01:37:36.614Z,-1.00
2023-02-27T01:40:07.005Z,-1.00
2023-02-27T01:42:35.136Z,-1.10
2023-02-27T01:45:32.842Z,-1.00
2023-02-27T01:48:06.210Z,-1.00
2023-02-27T01:50:36.277Z,-0.90
2023-02-27T01:53:06.173Z,-0.90
2023-02-27T01:55:38.935Z,-1.10
2023-02-27T01:58:08.489Z,-1.10
2023-02-27T02:00:38.632Z,-1.10
2023-02-27T02:03:14.349Z,-1.10
2023-02-27T02:05:43.992Z,-1.10
2023-02-27T02:08:14.271Z,-1.00
2023-02-27T02:10:42.795Z,-1.00
2023-02-27T02:13:11.221Z,-1.10
2023-02-27T02:15:48.678Z,-1.00
2023-02-27T02:18:22.947Z,-1.10
2023-02-27T02:21:45.326Z,-1.20
2023-02-27T02:24:49.080Z,-1.30
2023-02-27T02:27:33.142Z,-1.30
2023-02-27T02:30:43.499Z,-1.30
2023-02-27T02:33:48.350Z,-1.20
2023-02-27T02:36:57.489Z,-1.30
2023-02-27T02:39:50.636Z,-1.40
2023-02-27T02:42:23.415Z,-1.40
2023-02-27T02:45:05.313Z,-1.40
2023-02-27T02:47:40.567Z,-1.40
2023-02-27T02:50:14.962Z,-1.40
2023-02-27T02:52:59.153Z,-1.40
2023-02-27T02:55:34.606Z,-1.50
2023-02-27T02:58:08.351Z,-1.50
2023-02-27T03:00:41.703Z,-1.50
2023-02-27T03:03:14.072Z,-1.40
2023-02-27T03:05:43.541Z,-1.30
2023-02-27T03:08:16.067Z,-1.30
2023-02-27T03:10:50.558Z,-1.40
2023-02-27T03:13:25.787Z,-1.30
2023-02-27T03:16:00.391Z,-1.30
2023-02-27T03:18:36.199Z,-1.30
2023-02-27T03:21:08.482Z,-1.30
2023-02-27T03:23:42.206Z,-1.30
2023-02-27T03:26:15.362Z,-1.20
2023-02-27T03:28:54.841Z,-1.20
2023-02-27T03:31:29.054Z,-1.10
2023-02-27T03:34:01.665Z,-1.20
2023-02-27T03:36:31.843Z,-1.20
2023-02-27T03:39:07.526Z,-1.30
2023-02-27T03:41:42.608Z,-1.30
2023-02-27T03:44:15.989Z,-1.20
2023-02-27T03:46:44.060Z,-1.20
2023-02-27T03:49:12.262Z,-1.20
2023-02-27T03:51:40.360Z,-1.10
2023-02-27T03:54:12.774Z,-1.10
2023-02-27T03:56:43.135Z,-1.00
2023-02-27T03:59:11.340Z,-1.00
2023-02-27T04:01:39.862Z,-1.20
2023-02-27T04:04:14.609Z,-1.20
2023-02-27T04:07:04.823Z,-1.20
2023-02-27T04:09:45.814Z,-1.20
2023-02-27T04:12:31.760Z,-1.20
2023-02-27T04:15:14.717Z,-1.10
2023-02-27T04:17:53.791Z,-1.20
2023-02-27T04:20:41.896Z,-1.10
2023-02-27T04:23:18.322Z,-1.10
2023-02-27T04:25:56.239Z,-1.10
2023-02-27T04:28:34.156Z,-1.10
2023-02-27T04:31:09.406Z,-1.20
2023-02-27T04:33:44.848Z,-1.20
2023-02-27T04:36:19.499Z,-1.20
2023-02-27T04:38:52.512Z,-1.20
2023-02-27T04:41:24.671Z,-1.30
2023-02-27T04:43:54.691Z,-1.30
2023-02-27T04:46:26.577Z,-1.30
2023-02-27T04:49:00.644Z,-1.20
2023-02-27T04:51:34.143Z,-1.30
2023-02-27T04:54:07.851Z,-1.20
2023-02-27T04:56:39.493Z,-1.10
2023-02-27T04:59:14.077Z,-1.20
2023-02-27T05:01:46.229Z,-1.30
2023-02-27T05:04:17.017Z,-1.40
2023-02-27T05:06:46.690Z,-1.40
2023-02-27T05:09:21.356Z,-1.30
2023-02-27T05:11:54.556Z,-1.30
2023-02-27T05:14:30.228Z,-1.30
2023-02-27T05:17:04.437Z,-1.40
2023-02-27T05:19:33.847Z,-1.30
2023-02-27T05:22:12.978Z,-1.20
2023-02-27T05:24:50.961Z,-1.20
2023-02-27T05:27:25.862Z,-1.20
2023-02-27T05:30:00.546Z,-1.20
2023-02-27T05:32:38.093Z,-1.10
2023-02-27T05:35:14.353Z,-1.20
2023-02-27T05:37:46.591Z,-1.30
2023-02-27T05:40:18.935Z,-1.30
2023-02-27T05:42:48.847Z,-1.30
2023-02-27T05:45:21.740Z,-1.40
2023-02-27T05:47:56.662Z,-1.30
2023-02-27T05:50:28.785Z,-1.30
2023-02-27T05:53:00.866Z,-1.30
2023-02-27T05:55:33.604Z,-1.30
2023-02-27T05:58:08.306Z,-1.40
2023-02-27T06:00:42.286Z,-1.50
2023-02-27T06:03:10.928Z,-1.50
2023-02-27T06:05:40.180Z,-1.50
2023-02-27T06:08:15.110Z,-1.50
2023-02-27T06:10:46.586Z,-1.50
2023-02-27T06:13:18.975Z,-1.50
2023-02-27T06:15:56.260Z,-1.50
2023-02-27T06:18:37.891Z,-1.60
2023-02-27T06:21:14.690Z,-1.50
2023-02-27T06:23:45.368Z,-1.40
2023-02-27T06:26:16.715Z,-1.40
2023-02-27T06:28:45.005Z,-1.50
2023-02-27T06:31:18.347Z,-1.40
2023-02-27T06:33:46.741Z,-1.40
2023-02-27T06:36:17.223Z,-1.50
2023-02-27T06:38:45.646Z,-1.40
2023-02-27T06:41:14.176Z,-1.50
2023-02-27T06:43:45.874Z,-1.40
2023-02-27T06:46:19.771Z,-1.40
2023-02-27T06:48:51.406Z,-1.50
2023-02-27T06:51:22.431Z,-1.50
2023-02-27T06:53:56.594Z,-1.50
2023-02-27T06:56:29.594Z,-1.50
2023-02-27T06:58:59.722Z,-1.50
2023-02-27T07:01:30.286Z,-1.50
2023-02-27T07:04:01.625Z,-1.40
2023-02-27T07:07:34.109Z,-1.30
2023-02-27T07:09:25.494Z,-1.20
2023-02-27T07:11:54.160Z,-1.20
2023-02-27T07:14:25.776Z,-1.20
2023-02-27T07:17:04.582Z,-1.20
2023-02-27T07:19:38.109Z,-1.20
2023-02-27T07:22:06.555Z,-1.20
2023-02-27T07:24:46.691Z,-1.20
2023-02-27T07:27:16.586Z,-1.10
2023-02-27T07:29:44.971Z,-1.10
2023-02-27T07:32:16.422Z,-1.00
2023-02-27T07:34:46.469Z,-1.10
2023-02-27T07:37:19.126Z,-1.00
2023-02-27T07:39:47.617Z,-1.10
2023-02-27T07:42:19.311Z,-1.10
2023-02-27T07:44:47.674Z,-1.10
2023-02-27T07:47:19.020Z,-1.00
2023-02-27T07:49:52.207Z,-0.90
2023-02-27T07:52:25.757Z,-1.00
2023-02-27T07:54:54.366Z,-0.90
2023-02-27T07:57:25.525Z,-0.90
2023-02-27T07:59:55.553Z,-0.90
2023-02-27T08:02:31.327Z,-0.90
2023-02-27T08:05:06.584Z,-0.70
2023-02-27T08:07:37.845Z,-0.70
2023-02-27T08:10:07.027Z,-0.60
2023-02-27T08:12:35.566Z,-0.60
2023-02-27T08:15:04.163Z,-0.70
2023-02-27T08:17:32.670Z,-0.60
2023-02-27T08:20:04.895Z,-0.60
2023-02-27T08:22:36.918Z,-0.60
2023-02-27T08:25:07.016Z,-0.60
2023-02-27T08:27:50.201Z,-0.70
2023-02-27T08:30:25.826Z,-0.60
2023-02-27T08:32:57.312Z,-0.50
2023-02-27T08:35:25.866Z,-0.50
2023-02-27T08:38:00.048Z,-0.40
2023-02-27T08:40:28.292Z,-0.40
2023-02-27T08:42:56.626Z,-0.30
2023-02-27T08:45:34.118Z,-0.30
2023-02-27T08:48:02.446Z,-0.20
2023-02-27T08:50:30.611Z,-0.10
2023-02-27T08:53:00.265Z,0.00
2023-02-27T08:55:29.200Z,0.10
2023-02-27T08:57:59.549Z,0.10
2023-02-27T09:00:32.473Z,0.00
2023-02-27T09:03:01.332Z,0.00
2023-02-27T09:05:29.994Z,0.10
2023-02-27T09:07:59.629Z,0.20
2023-02-27T09:10:28.095Z,0.20
2023-02-27T09:12:56.360Z,0.30
2023-02-27T09:15:26.125Z,0.20
2023-02-27T09:18:00.220Z,0.20
2023-02-27T09:20:28.441Z,0.30
2023-02-27T09:23:00.141Z,0.30
2023-02-27T09:25:44.827Z,0.40
2023-02-27T09:28:13.282Z,0.50
2023-02-27T09:30:41.553Z,0.50
2023-02-27T09:33:10.287Z,0.50
2023-02-27T09:35:38.686Z,0.50
2023-02-27T09:38:09.983Z,0.50
2023-02-27T09:40:49.751Z,0.50
2023-02-27T09:43:26.269Z,0.50
2023-02-27T09:45:58.593Z,0.60
2023-02-27T09:48:33.611Z,0.70
2023-02-27T09:51:05.689Z,0.80
2023-02-27T09:53:39.085Z,0.80
2023-02-27T09:56:17.749Z,1.00
2023-02-27T09:59:19.783Z,1.00
2023-02-27T10:02:23.510Z,1.10
2023-02-27T10:05:24.714Z,1.30
2023-02-27T10:08:32.462Z,1.20
2023-02-27T10:11:06.202Z,1.20
2023-02-27T10:13:59.100Z,1.20
2023-02-27T10:16:36.382Z,1.20
2023-02-27T10:19:19.648Z,1.20
2023-02-27T10:21:51.965Z,1.30
2023-02-27T10:24:27.648Z,1.30
2023-02-27T10:27:03.967Z,1.20
2023-02-27T10:29:39.835Z,1.30
2023-02-27T10:32:19.891Z,1.20
2023-02-27T10:34:52.301Z,1.20
2023-02-27T10:37:25.401Z,1.30
2023-02-27T10:39:57.375Z,1.30
2023-02-27T10:42:35.621Z,1.10
2023-02-27T10:45:12.441Z,0.90
2023-02-27T10:47:46.071Z,0.80
2023-02-27T10:50:27.407Z,0.70
2023-02-27T10:53:05.900Z,0.60
2023-02-27T10:55:39.384Z,0.40
2023-02-27T10:58:21.815Z,0.60
2023-02-27T11:00:58.288Z,0.70
2023-02-27T11:03:39.303Z,0.70
2023-02-27T11:06:14.050Z,0.80
2023-02-27T11:08:45.884Z,0.60
2023-02-27T11:11:30.042Z,0.60
2023-02-27T11:14:25.129Z,0.80
2023-02-27T11:16:57.983Z,0.80
2023-02-27T11:19:37.865Z,1.00
2023-02-27T11:22:09.005Z,1.00
2023-02-27T11:24:38.183Z,1.10
2023-02-27T11:27:22.146Z,1.10
2023-02-27T11:30:04.725Z,1.10
2023-02-27T11:32:38.413Z,1.00
2023-02-27T11:35:25.807Z,0.90
2023-02-27T11:37:56.428Z,0.80
2023-02-27T11:40:34.535Z,0.80
2023-02-27T11:43:11.033Z,0.80
2023-02-27T11:46:17.627Z,0.80
2023-02-27T11:48:39.623Z,0.80
2023-02-27T11:51:29.660Z,0.80
2023-02-27T11:54:32.538Z,0.70
2023-02-27T11:57:04.952Z,0.70
2023-02-27T11:59:44.791Z,0.70
2023-02-27T12:02:20.475Z,0.50
2023-02-27T12:04:57.974Z,0.70
2023-02-27T12:07:40.054Z,0.80
2023-02-27T12:10:15.652Z,0.80
2023-02-27T12:12:49.142Z,0.80
2023-02-27T12:15:27.029Z,0.90
2023-02-27T12:18:08.240Z,1.10
2023-02-27T12:20:47.420Z,1.10
2023-02-27T12:23:22.151Z,1.10
2023-02-27T12:25:53.843Z,1.20
2023-02-27T12:28:41.989Z,1.20
2023-02-27T12:31:39.700Z,1.20
2023-02-27T12:34:26.040Z,1.10
2023-02-27T12:36:54.793Z,1.10
2023-02-27T12:39:25.905Z,1.00
2023-02-27T12:42:12.835Z,1.00
2023-02-27T12:45:03.119Z,1.10
2023-02-27T12:47:38.421Z,1.20
2023-02-27T12:50:11.674Z,1.30
2023-02-27T12:52:50.913Z,1.20
2023-02-27T12:55:24.023Z,1.30
2023-02-27T12:58:19.121Z,1.30
2023-02-27T13:00:50.201Z,1.30
2023-02-27T13:03:24.726Z,1.30
2023-02-27T13:06:01.574Z,1.40
2023-02-27T13:08:55.868Z,1.40
2023-02-27T13:11:36.494Z,1.40
2023-02-27T13:14:12.223Z,1.40
2023-02-27T13:16:45.045Z,1.40
2023-02-27T13:19:16.835Z,1.30
2023-02-27T13:21:52.470Z,1.30
2023-02-27T13:24:26.558Z,1.30
2023-02-27T13:27:00.658Z,1.20
2023-02-27T13:29:36.945Z,1.20
2023-02-27T13:32:25.160Z,1.20
2023-02-27T13:35:08.151Z,1.30
2023-02-27T13:37:53.464Z,1.20
2023-02-27T13:40:33.019Z,1.10
2023-02-27T13:43:06.340Z,1.20
2023-02-27T13:45:57.068Z,1.20
2023-02-27T13:48:46.132Z,1.40
2023-02-27T13:51:42.390Z,1.40
2023-02-27T13:54:27.584Z,1.20
2023-02-27T13:57:22.321Z,1.10
2023-02-27T14:00:00.491Z,1.00
2023-02-27T14:02:59.473Z,1.10
2023-02-27T14:05:32.034Z,1.10
2023-02-27T14:08:06.272Z,1.10
2023-02-27T14:10:37.082Z,1.00
2023-02-27T14:13:05.551Z,1.10
2023-02-27T14:16:00.464Z,1.00
2023-02-27T14:18:52.280Z,1.00
2023-02-27T14:21:54.355Z,1.00
2023-02-27T14:24:27.136Z,1.00
2023-02-27T14:26:56.048Z,1.10
2023-02-27T14:29:30.965Z,1.10
2023-02-27T14:32:03.850Z,1.20
2023-02-27T14:34:32.263Z,1.10
2023-02-27T14:37:03.144Z,1.00
2023-02-27T14:39:34.244Z,1.00
2023-02-27T14:42:31.313Z,1.00
2023-02-27T14:44:59.566Z,1.10
2023-02-27T14:47:33.053Z,1.10
2023-02-27T14:50:02.139Z,1.00
2023-02-27T14:52:32.315Z,1.00
2023-02-27T14:55:17.870Z,1.00
2023-02-27T14:57:56.044Z,1.10
2023-02-27T15:00:35.903Z,0.90
2023-02-27T15:03:22.516Z,1.00
2023-02-27T15:05:53.084Z,0.90
2023-02-27T15:08:23.846Z,1.00
2023-02-27T15:11:14.889Z,0.90
2023-02-27T15:14:06.296Z,0.80
2023-02-27T15:16:58.856Z,0.60
2023-02-27T15:19:28.751Z,0.60
2023-02-27T15:21:59.637Z,0.60
2023-02-27T15:24:35.227Z,0.60
2023-02-27T15:27:15.994Z,0.50
2023-02-27T15:29:46.308Z,0.40
2023-02-27T15:32:19.633Z,0.30
2023-02-27T15:34:49.940Z,0.30
2023-02-27T15:37:21.936Z,0.40
2023-02-27T15:39:51.364Z,0.40
2023-02-27T15:42:21.118Z,0.30
2023-02-27T15:44:49.873Z,0.30
2023-02-27T15:47:23.840Z,0.20
2023-02-27T15:49:57.170Z,0.20
2023-02-27T15:52:28.052Z,0.20
2023-02-27T15:55:02.492Z,0.20
2023-02-27T15:57:31.046Z,0.20
2023-02-27T16:00:01.258Z,0.20
2023-02-27T16:02:32.438Z,0.40
2023-02-27T16:05:01.989Z,0.50
2023-02-27T16:07:34.669Z,0.50
2023-02-27T16:10:15.099Z,0.50
2023-02-27T16:12:44.472Z,0.50
2023-02-27T16:15:28.751Z,0.50
2023-02-27T16:18:00.458Z,0.50
2023-02-27T16:20:38.401Z,0.40
2023-02-27T16:23:08.523Z,0.30
2023-02-27T16:25:37.194Z,0.30
2023-02-27T16:28:05.510Z,0.30
2023-02-27T16:30:33.556Z,0.40
2023-02-27T16:33:02.859Z,0.30
2023-02-27T16:35:33.341Z,0.30
2023-02-27T16:38:03.450Z,0.30
2023-02-27T16:40:31.534Z,0.20
2023-02-27T16:43:01.329Z,0.20
2023-02-27T16:45:31.124Z,0.20
2023-02-27T16:48:00.743Z,0.00
2023-02-27T16:50:31.631Z,-0.10
2023-02-27T16:53:01.310Z,-0.10
2023-02-27T16:55:32.502Z,-0.10
2023-02-27T16:58:01.396Z,-0.10
2023-02-27T17:00:29.539Z,-0.10
2023-02-27T17:02:57.605Z,-0.10
2023-02-27T17:05:26.326Z,0.10
2023-02-27T17:07:54.353Z,0.00
2023-02-27T17:10:25.420Z,0.00
2023-02-27T17:12:53.836Z,0.00
2023-02-27T17:15:22.002Z,0.00
2023-02-27T17:17:50.027Z,0.10
2023-02-27T17:20:18.133Z,-0.10
2023-02-27T17:22:46.191Z,-0.10
2023-02-27T17:25:14.875Z,-0.10
2023-02-27T17:27:45.344Z,-0.10
2023-02-27T17:30:15.308Z,-0.10
2023-02-27T17:32:43.279Z,-0.10
2023-02-27T17:35:11.488Z,-0.10
2023-02-27T17:37:39.793Z,-0.20
2023-02-27T17:40:09.103Z,-0.40
2023-02-27T17:42:37.544Z,-0.50
2023-02-27T17:45:08.689Z,-0.40
2023-02-27T17:47:37.434Z,-0.40
2023-02-27T17:50:06.217Z,-0.50
2023-02-27T17:52:36.586Z,-0.50
2023-02-27T17:55:04.743Z,-0.60
2023-02-27T17:57:35.523Z,-0.60
2023-02-27T18:00:04.970Z,-0.50
2023-02-27T18:02:34.350Z,-0.50
2023-02-27T18:05:02.362Z,-0.50
2023-02-27T18:07:30.421Z,-0.60
2023-02-27T18:09:58.433Z,-0.60
2023-02-27T18:12:26.532Z,-0.50
2023-02-27T18:14:54.713Z,-0.40
2023-02-27T18:17:22.876Z,-0.30
2023-02-27T18:19:52.223Z,-0.30
2023-02-27T18:22:21.712Z,-0.30
2023-02-27T18:24:50.082Z,-0.50
2023-02-27T18:27:18.219Z,-0.50
2023-02-27T18:29:46.372Z,-0.60
2023-02-27T18:32:14.412Z,-0.70
2023-02-27T18:34:43.439Z,-0.80
2023-02-27T18:37:12.742Z,-0.80
2023-02-27T18:39:42.128Z,-0.70
2023-02-27T18:42:10.056Z,-0.60
2023-02-27T18:44:40.716Z,-0.70
2023-02-27T18:47:09.599Z,-0.70
2023-02-27T18:49:37.797Z,-0.80
2023-02-27T18:52:05.776Z,-0.80
2023-02-27T18:54:36.131Z,-0.90
2023-02-27T18:57:04.718Z,-0.90
2023-02-27T18:59:32.771Z,-1.00
2023-02-27T19:02:01.410Z,-1.00
2023-02-27T19:04:32.712Z,-0.90
2023-02-27T19:07:00.818Z,-0.90
2023-02-27T19:09:32.654Z,-1.00
2023-02-27T19:12:02.148Z,-0.90
2023-02-27T19:14:30.219Z,-0.90
2023-02-27T19:17:00.466Z,-0.80
2023-02-27T19:19:28.898Z,-0.70
2023-02-27T19:21:57.384Z,-0.70
2023-02-27T19:24:26.013Z,-0.60
2023-02-27T19:26:54.044Z,-0.60
2023-02-27T19:29:23.573Z,-0.70
2023-02-27T19:31:51.743Z,-0.80
2023-02-27T19:34:19.757Z,-0.80
2023-02-27T19:36:47.818Z,-0.80
2023-02-27T19:39:15.797Z,-0.90
2023-02-27T19:41:43.881Z,-0.80
2023-02-27T19:44:12.192Z,-0.80
2023-02-27T19:46:42.147Z,-0.80
2023-02-27T19:49:11.238Z,-0.90
2023-02-27T19:51:41.491Z,-0.90
2023-02-27T19:54:13.573Z,-0.80
2023-02-27T19:56:41.847Z,-0.90
2023-02-27T19:59:11.279Z,-0.90
2023-02-27T20:01:39.824Z,-0.80
2023-02-27T20:04:11.061Z,-0.80
2023-02-27T20:06:42.624Z,-0.80
2023-02-27T20:09:13.265Z,-0.90
2023-02-27T20:11:41.283Z,-0.90
2023-02-27T20:14:09.592Z,-1.00
2023-02-27T20:16:37.812Z,-0.90
2023-02-27T20:19:06.851Z,-0.90
2023-02-27T20:21:36.245Z,-1.00
2023-02-27T20:24:04.813Z,-1.00
2023-02-27T20:26:34.909Z,-0.90
2023-02-27T20:29:05.287Z,-0.90
2023-02-27T20:31:36.457Z,-1.00
2023-02-27T20:34:06.237Z,-0.90
2023-02-27T20:36:34.660Z,-1.00
2023-02-27T20:39:05.207Z,-1.00
2023-02-27T20:41:34.810Z,-1.10
2023-02-27T20:44:02.942Z,-1.20
2023-02-27T20:46:31.688Z,-1.20
2023-02-27T20:49:01.570Z,-1.10
2023-02-27T20:51:31.676Z,-1.00
2023-02-27T20:54:00.889Z,-1.00
2023-02-27T20:56:32.914Z,-1.00
2023-02-27T20:59:05.061Z,-0.90
2023-02-27T21:01:33.478Z,-0.90
2023-02-27T21:04:02.673Z,-0.80
2023-02-27T21:06:33.204Z,-0.80
2023-02-27T21:09:05.615Z,-0.80
2023-02-27T21:11:35.133Z,-0.90
2023-02-27T21:14:05.448Z,-1.00
2023-02-27T21:16:34.044Z,-1.10
2023-02-27T21:19:02.354Z,-1.20
2023-02-27T21:21:33.113Z,-1.20
2023-02-27T21:24:01.825Z,-1.20
2023-02-27T21:26:34.629Z,-1.10
2023-02-27T21:29:07.236Z,-1.10
2023-02-27T21:31:36.188Z,-1.10
2023-02-27T21:34:07.114Z,-1.20
2023-02-27T21:36:38.236Z,-1.00
2023-02-27T21:39:09.901Z,-1.10
2023-02-27T21:41:38.049Z,-1.00
2023-02-27T21:44:08.723Z,-1.10
2023-02-27T21:46:36.698Z,-1.10
2023-02-27T21:49:05.185Z,-1.00
2023-02-27T21:51:40.529Z,-1.00
2023-02-27T21:54:11.537Z,-1.20
2023-02-27T21:56:40.478Z,-1.20
2023-02-27T21:59:11.102Z,-1.20
2023-02-27T22:01:39.862Z,-1.30
2023-02-27T22:04:08.386Z,-1.20
2023-02-27T22:06:36.550Z,-1.20
2023-02-27T22:09:06.588Z,-1.30
2023-02-27T22:11:35.365Z,-1.20
2023-02-27T22:14:03.659Z,-1.10
2023-02-27T22:16:32.938Z,-1.20
2023-02-27T22:19:01.047Z,-1.30
2023-02-27T22:21:29.323Z,-1.20
2023-02-27T22:23:58.273Z,-1.10
2023-02-27T22:26:29.151Z,-1.20
2023-02-27T22:28:57.932Z,-1.30
2023-02-27T22:31:27.066Z,-1.40
2023-02-27T22:33:59.826Z,-1.40
2023-02-27T22:36:30.117Z,-1.40
2023-02-27T22:38:58.844Z,-1.30
2023-02-27T22:41:29.708Z,-1.30
2023-02-27T22:43:58.362Z,-1.20
2023-02-27T22:46:28.665Z,-1.20
2023-02-27T22:49:01.643Z,-1.20
2023-02-27T22:51:30.531Z,-1.30
2023-02-27T22:54:01.785Z,-1.40
2023-02-27T22:56:30.187Z,-1.40
2023-02-27T22:58:58.178Z,-1.40
2023-02-27T23:01:28.656Z,-1.40
2023-02-27T23:04:00.519Z,-1.40
2023-02-27T23:06:31.396Z,-1.30
2023-02-27T23:08:59.941Z,-1.20
2023-02-27T23:11:28.681Z,-1.10
2023-02-27T23:13:57.063Z,-1.00
2023-02-27T23:16:25.406Z,-1.00
2023-02-27T23:18:55.071Z,-1.10
2023-02-27T23:21:26.401Z,-1.10
2023-02-27T23:23:54.600Z,-1.20
2023-02-27T23:26:22.926Z,-1.40
2023-02-27T23:28:51.194Z,-1.30
2023-02-27T23:31:19.201Z,-1.30
2023-02-27T23:33:47.235Z,-1.20
2023-02-27T23:36:15.364Z,-1.20
2023-02-27T23:38:46.648Z,-1.20
2023-02-27T23:41:17.403Z,-1.10
2023-02-27T23:43:57.756Z,-1.10
2023-02-27T23:46:30.157Z,-1.20
2023-02-27T23:48:58.529Z,-1.10
2023-02-27T23:51:29.099Z,-1.30
2023-02-27T23:53:59.786Z,-1.40
2023-02-27T23:56:29.927Z,-1.40
2023-02-27T23:58:59.988Z,-1.40
